WetterOnline ( https://www.wetteronline.de )

Wetter aktuell Erzgebirge/West

Aktuelles Wetter: Carlsfeld (899m)

6-stündlich | Neueste Meldungen
Ortszeit Temperatur Wetter
Di, 04.10. 2:00 6.4° C bedeckt
Mo, 03.10. 20:00 7.1° C bewölkt
Mo, 03.10. 14:00 7.6° C bewölkt
Mo, 03.10. 8:00 5.9° C leichter Regen
Mo, 03.10. 2:00 6.6° C bedeckt
So, 02.10. 20:00 7.2° C Regen
So, 02.10. 14:00 9.2° C leichter Regen
So, 02.10. 8:00 7.1° C bedeckt
Ortszeit Temperatur Wetter
Di, 04.10. 2:30 6.4° C bedeckt
Di, 04.10. 2:20 6.4° C bedeckt
Di, 04.10. 2:10 6.4° C bedeckt
Di, 04.10. 2:00 6.4° C bedeckt
Di, 04.10. 1:50 6.4° C bedeckt
Di, 04.10. 1:40 6.4° C bedeckt
Di, 04.10. 1:30 6.4° C Sprühregen
Di, 04.10. 1:00 6.4° C bedeckt
Di, 04.10. 0:30 6.4° C bedeckt
Di, 04.10. 0:00 6.4° C leichter Regen
Mo, 03.10. 23:30 6.4° C bedeckt
Ortszeit Relative Feuchte Sichtweite
Di, 04.10. 2:00 97% 13 km
Mo, 03.10. 20:00 93% 35 km
Mo, 03.10. 14:00 91% 50 km
Mo, 03.10. 8:00 99% 0.4 km
Mo, 03.10. 2:00 98% 2.1 km
So, 02.10. 20:00 93% 13 km
So, 02.10. 14:00 92% 30 km
So, 02.10. 8:00 96% 18 km
Ortszeit Relative Feuchte Sichtweite
Di, 04.10. 2:30 97% 9 km
Di, 04.10. 2:20 97% -
Di, 04.10. 2:10 97% -
Di, 04.10. 2:00 97% 13 km
Di, 04.10. 1:50 97% -
Di, 04.10. 1:40 97% -
Di, 04.10. 1:30 97% 15 km
Di, 04.10. 1:00 97% 15 km
Di, 04.10. 0:30 97% 14 km
Di, 04.10. 0:00 97% 6 km
Mo, 03.10. 23:30 98% -
Ortszeit Niederschlagsmenge Niederschlagsart
Di, 04.10. 2:00 2 l/m2 in 6 Std. Regen
Mo, 03.10. 20:00 1 l/m2 in 12 Std. Regen
Mo, 03.10. 14:00 1 l/m2 in 6 Std. Regen
Mo, 03.10. 8:00 2 l/m2 in 12 Std. Regen
Mo, 03.10. 2:00 0.3 l/m2 in 6 Std. Regen
So, 02.10. 20:00 3 l/m2 in 12 Std. Regen
So, 02.10. 14:00 0.4 l/m2 in 6 Std. Regen
So, 02.10. 8:00 0.1 l/m2 in 12 Std. Sprühregen
Ortszeit Niederschlagsmenge Niederschlagsart
Di, 04.10. 2:30 0.0 l/m2 in 1 Std. -
Di, 04.10. 2:20 keine Meldung -
Di, 04.10. 2:10 keine Meldung -
Di, 04.10. 2:00 <0.05 l/m2 in 1 Std. Regen
Di, 04.10. 1:50 keine Meldung -
Di, 04.10. 1:40 keine Meldung -
Di, 04.10. 1:30 <0.05 l/m2 in 1 Std. -
Di, 04.10. 1:00 0.1 l/m2 in 1 Std. Regen
Di, 04.10. 0:30 0.1 l/m2 in 1 Std. Schneeregen
Di, 04.10. 0:00 0.6 l/m2 in 1 Std. Regen
Mo, 03.10. 23:30 0.5 l/m2 in 1 Std. -
Ortszeit Stärke Spitze Richtung
km/h Bft. km/h Grad Sektor
Di, 04.10. 2:00 7 2 25 300° NW
Mo, 03.10. 20:00 7 2 32 300° NW
Mo, 03.10. 14:00 9 2 39 340° N
Mo, 03.10. 8:00 9 2 41 330° NW
Mo, 03.10. 2:00 11 2 40 340° N
So, 02.10. 20:00 9 2 39 340° N
So, 02.10. 14:00 9 2 39 290° W
So, 02.10. 8:00 15 3 37 270° W
Ortszeit Stärke Spitze Richtung
km/h Bft. km/h Grad Sektor
Di, 04.10. 2:30 7 2 14 310° NW
Di, 04.10. 2:20 7 2 - 310° NW
Di, 04.10. 2:10 6 1 - 310° NW
Di, 04.10. 2:00 7 2 18 300° NW
Di, 04.10. 1:50 7 2 - 300° NW
Di, 04.10. 1:40 7 2 - 300° NW
Di, 04.10. 1:30 7 2 18 300° NW
Di, 04.10. 1:00 6 1 15 310° NW
Di, 04.10. 0:30 6 1 15 300° NW
Di, 04.10. 0:00 4 1 22 310° NW
Mo, 03.10. 23:30 6 1 20 320° NW
Ortszeit Untergrenze Bedeckung Gattung
total tief tief mittel hoch
Di, 04.10. 2:00 60 m 8/8 8/8 - - -
Mo, 03.10. 20:00 360 m 7/8 7/8 - - -
Mo, 03.10. 14:00 180 m 7/8 7/8 - - -
Mo, 03.10. 8:00 30 m 8/8 8/8 - - -
Mo, 03.10. 2:00 60 m 8/8 8/8 - - -
So, 02.10. 20:00 60 m 8/8 8/8 - - -
So, 02.10. 14:00 240 m 7/8 7/8 - - -
So, 02.10. 8:00 120 m 8/8 8/8 - - -
Ortszeit Bedeckungsgrad in Achtel und Wolkenuntergrenze
Di, 04.10. 2:30 8(60m)
Di, 04.10. 2:20 8(60m)
Di, 04.10. 2:10 8
Di, 04.10. 2:00 8(60m)
Di, 04.10. 1:50 8(60m)
Di, 04.10. 1:40 8
Di, 04.10. 1:30 8(90m)
Di, 04.10. 1:00 8(90m)
Di, 04.10. 0:30 8(90m)
Di, 04.10. 0:00 8(90m)
Mo, 03.10. 23:30 8(30m)
Ortszeit Stationsdruck (hPa) Tendenz (hPa in 3 Std.)
Di, 04.10. 2:00 920 - 0,6
Mo, 03.10. 20:00 920 - 0,2
Mo, 03.10. 14:00 920 + 0,6
Mo, 03.10. 8:00 918 + 0,6
Mo, 03.10. 2:00 917 + 0,7
So, 02.10. 20:00 915 + 1,4
So, 02.10. 14:00 913 - 0,5
So, 02.10. 8:00 914 + 0,3
Ortszeit Stationsdruck (hPa) Tendenz (hPa in 3 Std.)
Di, 04.10. 2:30 920 - 0,6
Di, 04.10. 2:20 920 keine Meldung
Di, 04.10. 2:10 920 keine Meldung
Di, 04.10. 2:00 920 - 0,6
Di, 04.10. 1:50 920 keine Meldung
Di, 04.10. 1:40 920 keine Meldung
Di, 04.10. 1:30 920 - 0,6
Di, 04.10. 1:00 920 - 0,3
Di, 04.10. 0:30 920 - 0,3
Di, 04.10. 0:00 920 - 0,2
Mo, 03.10. 23:30 920 0,0
Ortszeit Schneehöhe (cm)
Di, 04.10. 2:00 0
Mo, 03.10. 20:00 0
Mo, 03.10. 14:00 0
Mo, 03.10. 8:00 0
Mo, 03.10. 2:00 0
So, 02.10. 20:00 0
So, 02.10. 14:00 0
So, 02.10. 8:00 0
Ortszeit Schneehöhe (cm)
Di, 04.10. 2:30 0
Di, 04.10. 2:20 0
Di, 04.10. 2:10 0
Di, 04.10. 2:00 0
Di, 04.10. 1:50 0
Di, 04.10. 1:40 0
Di, 04.10. 1:30 0
Di, 04.10. 1:00 0
Di, 04.10. 0:30 0
Di, 04.10. 0:00 0
Mo, 03.10. 23:30 0
Link zu dieser Seite / Seite empfehlen

Das Wetter in ...